Terminal Aerodrome Forecast
Issued by NWS

Home | Current Version | Previous Version | Text Only | Print | Product List | Glossary On
Versions: 1 2 3 4 5 6 7 8 9 10 11 12 13 14 15 16 17 18 19 20 21 22 23 24 25
000
FTUS43 KDLH 202000 AAA
TAFHYR
TAF AMD
KHYR 202031Z 2021/2118 20012G24KT P6SM BKN040
     FM210000 19010KT P6SM SCT035
     FM210600 20007KT 3SM BR SCT010 BKN025
      TEMPO 2108/2112 3/4SM BR BKN008
     FM211500 20010KT P6SM SCT025=

USA.gov is the U.S. government's official web portal to all federal, state and local government web resources and services.